sensor_id;sensor_type;location;lat;lon;timestamp;P1;durP1;ratioP1;P2;durP2;ratioP2
47519;SDS011;33252;48.122;11.538;2023-03-01T00:01:31;29.60;;;15.75;;
47519;SDS011;33252;48.122;11.538;2023-03-01T00:03:57;26.70;;;15.60;;
47519;SDS011;33252;48.122;11.538;2023-03-01T00:06:24;26.92;;;16.70;;
47519;SDS011;33252;48.122;11.538;2023-03-01T00:08:51;28.98;;;17.73;;
47519;SDS011;33252;48.122;11.538;2023-03-01T00:11:20;24.40;;;15.55;;
47519;SDS011;33252;48.122;11.538;2023-03-01T00:13:54;31.60;;;16.00;;
47519;SDS011;33252;48.122;11.538;2023-03-01T00:16:25;28.63;;;16.15;;
47519;SDS011;33252;48.122;11.538;2023-03-01T00:18:56;25.38;;;16.45;;
47519;SDS011;33252;48.122;11.538;2023-03-01T00:21:22;27.73;;;17.35;;
47519;SDS011;33252;48.122;11.538;2023-03-01T00:23:48;30.77;;;17.27;;
47519;SDS011;33252;48.122;11.538;2023-03-01T00:26:14;25.60;;;15.57;;
47519;SDS011;33252;48.122;11.538;2023-03-01T00:28:42;26.52;;;16.48;;
47519;SDS011;33252;48.122;11.538;2023-03-01T00:31:09;28.67;;;16.58;;
47519;SDS011;33252;48.122;11.538;2023-03-01T00:33:38;26.92;;;16.65;;
47519;SDS011;33252;48.122;11.538;2023-03-01T00:36:04;23.60;;;15.60;;
47519;SDS011;33252;48.122;11.538;2023-03-01T00:38:30;29.17;;;15.32;;
47519;SDS011;33252;48.122;11.538;2023-03-01T00:41:03;27.30;;;16.02;;
47519;SDS011;33252;48.122;11.538;2023-03-01T00:43:33;31.80;;;16.40;;
47519;SDS011;33252;48.122;11.538;2023-03-01T00:46:23;30.40;;;16.77;;
47519;SDS011;33252;48.122;11.538;2023-03-01T00:48:48;29.55;;;16.33;;
47519;SDS011;33252;48.122;11.538;2023-03-01T00:51:16;28.48;;;17.27;;
47519;SDS011;33252;48.122;11.538;2023-03-01T00:53:46;29.55;;;17.73;;
47519;SDS011;33252;48.122;11.538;2023-03-01T00:56:14;27.67;;;15.57;;
47519;SDS011;33252;48.122;11.538;2023-03-01T00:58:40;25.73;;;16.50;;
47519;SDS011;33252;48.122;11.538;2023-03-01T01:01:07;31.77;;;17.42;;
47519;SDS011;33252;48.122;11.538;2023-03-01T01:03:42;26.75;;;16.20;;
47519;SDS011;33252;48.122;11.538;2023-03-01T01:06:15;32.33;;;16.95;;
47519;SDS011;33252;48.122;11.538;2023-03-01T01:08:45;30.02;;;16.42;;
47519;SDS011;33252;48.122;11.538;2023-03-01T01:11:11;28.85;;;17.13;;
47519;SDS011;33252;48.122;11.538;2023-03-01T01:13:38;27.17;;;16.42;;
47519;SDS011;33252;48.122;11.538;2023-03-01T01:16:04;24.90;;;15.23;;
47519;SDS011;33252;48.122;11.538;2023-03-01T01:18:30;25.80;;;16.88;;
47519;SDS011;33252;48.122;11.538;2023-03-01T01:20:56;29.27;;;16.58;;
47519;SDS011;33252;48.122;11.538;2023-03-01T01:23:22;28.90;;;15.82;;
47519;SDS011;33252;48.122;11.538;2023-03-01T01:25:48;31.10;;;17.08;;
47519;SDS011;33252;48.122;11.538;2023-03-01T01:28:14;31.63;;;17.63;;
47519;SDS011;33252;48.122;11.538;2023-03-01T01:30:39;32.05;;;17.13;;
47519;SDS011;33252;48.122;11.538;2023-03-01T01:33:05;28.08;;;15.80;;
47519;SDS011;33252;48.122;11.538;2023-03-01T01:35:30;26.55;;;15.65;;
47519;SDS011;33252;48.122;11.538;2023-03-01T01:37:56;26.98;;;16.60;;
47519;SDS011;33252;48.122;11.538;2023-03-01T01:40:22;28.40;;;16.17;;
47519;SDS011;33252;48.122;11.538;2023-03-01T01:42:47;27.13;;;16.75;;
47519;SDS011;33252;48.122;11.538;2023-03-01T01:47:57;25.13;;;15.35;;
47519;SDS011;33252;48.122;11.538;2023-03-01T01:50:27;28.88;;;15.73;;
47519;SDS011;33252;48.122;11.538;2023-03-01T01:53:02;24.02;;;16.45;;
47519;SDS011;33252;48.122;11.538;2023-03-01T01:55:42;30.17;;;16.45;;
47519;SDS011;33252;48.122;11.538;2023-03-01T01:58:13;27.67;;;16.20;;
47519;SDS011;33252;48.122;11.538;2023-03-01T02:00:42;35.03;;;17.98;;
47519;SDS011;33252;48.122;11.538;2023-03-01T02:03:11;28.48;;;16.65;;
47519;SDS011;33252;48.122;11.538;2023-03-01T02:08:24;30.02;;;17.08;;
47519;SDS011;33252;48.122;11.538;2023-03-01T02:10:52;28.25;;;16.15;;
47519;SDS011;33252;48.122;11.538;2023-03-01T02:13:20;27.15;;;16.25;;
47519;SDS011;33252;48.122;11.538;2023-03-01T02:15:46;34.13;;;17.80;;
47519;SDS011;33252;48.122;11.538;2023-03-01T02:18:17;29.60;;;16.60;;
47519;SDS011;33252;48.122;11.538;2023-03-01T02:21:05;29.23;;;16.98;;
47519;SDS011;33252;48.122;11.538;2023-03-01T02:23:36;29.00;;;17.63;;
47519;SDS011;33252;48.122;11.538;2023-03-01T02:26:09;29.75;;;17.27;;
47519;SDS011;33252;48.122;11.538;2023-03-01T02:28:42;27.05;;;15.88;;
47519;SDS011;33252;48.122;11.538;2023-03-01T02:31:09;25.23;;;16.60;;
47519;SDS011;33252;48.122;11.538;2023-03-01T02:33:58;28.95;;;15.63;;
47519;SDS011;33252;48.122;11.538;2023-03-01T02:36:28;28.00;;;16.75;;
47519;SDS011;33252;48.122;11.538;2023-03-01T02:39:03;29.67;;;17.45;;
47519;SDS011;33252;48.122;11.538;2023-03-01T02:41:33;29.83;;;16.17;;
47519;SDS011;33252;48.122;11.538;2023-03-01T02:44:02;28.17;;;17.15;;
47519;SDS011;33252;48.122;11.538;2023-03-01T02:46:28;26.27;;;17.70;;
47519;SDS011;33252;48.122;11.538;2023-03-01T02:48:55;24.92;;;16.48;;
47519;SDS011;33252;48.122;11.538;2023-03-01T02:57:19;27.08;;;16.80;;
47519;SDS011;33252;48.122;11.538;2023-03-01T02:59:46;31.13;;;16.70;;
47519;SDS011;33252;48.122;11.538;2023-03-01T03:02:26;30.70;;;16.58;;
47519;SDS011;33252;48.122;11.538;2023-03-01T03:05:11;30.52;;;18.00;;
47519;SDS011;33252;48.122;11.538;2023-03-01T03:07:41;26.25;;;17.10;;
47519;SDS011;33252;48.122;11.538;2023-03-01T03:10:09;27.13;;;17.27;;
47519;SDS011;33252;48.122;11.538;2023-03-01T03:12:39;26.67;;;16.27;;
47519;SDS011;33252;48.122;11.538;2023-03-01T03:15:06;29.33;;;17.58;;
47519;SDS011;33252;48.122;11.538;2023-03-01T03:17:38;29.52;;;16.35;;
47519;SDS011;33252;48.122;11.538;2023-03-01T03:20:06;30.95;;;16.95;;
47519;SDS011;33252;48.122;11.538;2023-03-01T03:22:36;28.48;;;17.48;;
47519;SDS011;33252;48.122;11.538;2023-03-01T03:25:05;30.50;;;17.17;;
47519;SDS011;33252;48.122;11.538;2023-03-01T03:27:35;27.02;;;17.13;;
47519;SDS011;33252;48.122;11.538;2023-03-01T03:30:05;27.52;;;16.05;;
47519;SDS011;33252;48.122;11.538;2023-03-01T03:32:37;27.33;;;16.02;;
47519;SDS011;33252;48.122;11.538;2023-03-01T03:35:04;29.92;;;16.70;;
47519;SDS011;33252;48.122;11.538;2023-03-01T03:37:40;28.98;;;18.80;;
47519;SDS011;33252;48.122;11.538;2023-03-01T03:40:26;26.05;;;15.40;;
47519;SDS011;33252;48.122;11.538;2023-03-01T03:42:53;30.35;;;16.38;;
47519;SDS011;33252;48.122;11.538;2023-03-01T03:45:19;27.67;;;16.42;;
47519;SDS011;33252;48.122;11.538;2023-03-01T03:47:45;27.67;;;16.65;;
47519;SDS011;33252;48.122;11.538;2023-03-01T03:50:12;27.55;;;16.10;;
47519;SDS011;33252;48.122;11.538;2023-03-01T03:52:40;29.05;;;17.42;;
47519;SDS011;33252;48.122;11.538;2023-03-01T03:55:07;28.02;;;17.45;;
47519;SDS011;33252;48.122;11.538;2023-03-01T03:57:40;30.27;;;17.92;;
47519;SDS011;33252;48.122;11.538;2023-03-01T04:00:07;31.80;;;17.70;;
47519;SDS011;33252;48.122;11.538;2023-03-01T04:02:40;29.65;;;18.15;;
47519;SDS011;33252;48.122;11.538;2023-03-01T04:05:10;25.30;;;16.38;;
47519;SDS011;33252;48.122;11.538;2023-03-01T04:07:38;30.88;;;18.52;;
47519;SDS011;33252;48.122;11.538;2023-03-01T04:10:04;27.58;;;16.27;;
47519;SDS011;33252;48.122;11.538;2023-03-01T04:12:32;29.67;;;16.90;;
47519;SDS011;33252;48.122;11.538;2023-03-01T04:14:59;31.55;;;16.92;;
47519;SDS011;33252;48.122;11.538;2023-03-01T04:17:37;29.08;;;16.50;;
47519;SDS011;33252;48.122;11.538;2023-03-01T04:20:04;31.15;;;18.70;;
47519;SDS011;33252;48.122;11.538;2023-03-01T04:22:31;30.52;;;17.63;;
47519;SDS011;33252;48.122;11.538;2023-03-01T04:24:58;24.92;;;16.45;;
47519;SDS011;33252;48.122;11.538;2023-03-01T04:27:30;29.55;;;16.80;;
47519;SDS011;33252;48.122;11.538;2023-03-01T04:30:00;34.00;;;18.50;;
47519;SDS011;33252;48.122;11.538;2023-03-01T04:32:27;28.70;;;16.95;;
47519;SDS011;33252;48.122;11.538;2023-03-01T04:34:52;29.77;;;17.45;;
47519;SDS011;33252;48.122;11.538;2023-03-01T04:37:18;33.60;;;18.27;;
47519;SDS011;33252;48.122;11.538;2023-03-01T04:39:44;29.92;;;16.20;;
47519;SDS011;33252;48.122;11.538;2023-03-01T04:42:12;28.23;;;17.45;;
47519;SDS011;33252;48.122;11.538;2023-03-01T04:44:39;28.77;;;16.60;;
47519;SDS011;33252;48.122;11.538;2023-03-01T04:47:05;30.70;;;18.50;;
47519;SDS011;33252;48.122;11.538;2023-03-01T04:49:31;33.58;;;18.20;;
47519;SDS011;33252;48.122;11.538;2023-03-01T04:51:56;30.15;;;17.20;;
47519;SDS011;33252;48.122;11.538;2023-03-01T04:54:32;31.63;;;17.10;;
47519;SDS011;33252;48.122;11.538;2023-03-01T04:56:59;31.40;;;17.58;;
47519;SDS011;33252;48.122;11.538;2023-03-01T04:59:25;31.33;;;17.35;;
47519;SDS011;33252;48.122;11.538;2023-03-01T05:01:51;30.50;;;18.65;;
47519;SDS011;33252;48.122;11.538;2023-03-01T05:04:22;31.33;;;18.15;;
47519;SDS011;33252;48.122;11.538;2023-03-01T05:06:51;28.45;;;17.08;;
47519;SDS011;33252;48.122;11.538;2023-03-01T05:09:18;27.95;;;16.52;;
47519;SDS011;33252;48.122;11.538;2023-03-01T05:11:44;34.45;;;17.40;;
47519;SDS011;33252;48.122;11.538;2023-03-01T05:14:10;30.70;;;16.95;;
47519;SDS011;33252;48.122;11.538;2023-03-01T05:16:36;30.25;;;17.38;;
47519;SDS011;33252;48.122;11.538;2023-03-01T05:19:02;30.38;;;17.65;;
47519;SDS011;33252;48.122;11.538;2023-03-01T05:21:39;30.38;;;17.35;;
47519;SDS011;33252;48.122;11.538;2023-03-01T05:24:25;31.80;;;17.30;;
47519;SDS011;33252;48.122;11.538;2023-03-01T05:26:51;28.27;;;17.20;;
47519;SDS011;33252;48.122;11.538;2023-03-01T05:29:20;28.25;;;16.98;;
47519;SDS011;33252;48.122;11.538;2023-03-01T05:31:59;30.75;;;17.45;;
47519;SDS011;33252;48.122;11.538;2023-03-01T05:34:29;29.85;;;17.67;;
47519;SDS011;33252;48.122;11.538;2023-03-01T05:36:56;31.65;;;17.85;;
47519;SDS011;33252;48.122;11.538;2023-03-01T05:39:23;35.50;;;17.98;;
47519;SDS011;33252;48.122;11.538;2023-03-01T05:41:54;31.80;;;17.80;;
47519;SDS011;33252;48.122;11.538;2023-03-01T05:44:21;31.98;;;18.17;;
47519;SDS011;33252;48.122;11.538;2023-03-01T05:46:47;35.35;;;19.65;;
47519;SDS011;33252;48.122;11.538;2023-03-01T05:49:13;31.92;;;18.13;;
47519;SDS011;33252;48.122;11.538;2023-03-01T05:51:40;31.80;;;18.80;;
47519;SDS011;33252;48.122;11.538;2023-03-01T05:54:06;33.53;;;18.27;;
47519;SDS011;33252;48.122;11.538;2023-03-01T05:56:33;31.85;;;18.83;;
47519;SDS011;33252;48.122;11.538;2023-03-01T05:58:59;30.63;;;17.80;;
47519;SDS011;33252;48.122;11.538;2023-03-01T06:01:25;31.17;;;18.42;;
47519;SDS011;33252;48.122;11.538;2023-03-01T06:03:51;29.40;;;17.80;;
47519;SDS011;33252;48.122;11.538;2023-03-01T06:06:17;34.00;;;17.73;;
47519;SDS011;33252;48.122;11.538;2023-03-01T06:08:43;29.90;;;17.50;;
47519;SDS011;33252;48.122;11.538;2023-03-01T06:11:08;36.42;;;18.77;;
47519;SDS011;33252;48.122;11.538;2023-03-01T06:13:34;31.00;;;17.83;;
47519;SDS011;33252;48.122;11.538;2023-03-01T06:16:00;32.60;;;17.85;;
47519;SDS011;33252;48.122;11.538;2023-03-01T06:18:25;35.03;;;19.15;;
47519;SDS011;33252;48.122;11.538;2023-03-01T06:20:55;33.58;;;18.23;;
47519;SDS011;33252;48.122;11.538;2023-03-01T06:23:21;36.33;;;19.17;;
47519;SDS011;33252;48.122;11.538;2023-03-01T06:25:48;35.25;;;19.05;;
47519;SDS011;33252;48.122;11.538;2023-03-01T06:28:13;34.33;;;19.65;;
47519;SDS011;33252;48.122;11.538;2023-03-01T06:30:39;32.78;;;18.30;;
47519;SDS011;33252;48.122;11.538;2023-03-01T06:33:05;31.55;;;17.83;;
47519;SDS011;33252;48.122;11.538;2023-03-01T06:35:31;28.92;;;17.60;;
47519;SDS011;33252;48.122;11.538;2023-03-01T06:37:57;31.17;;;17.45;;
47519;SDS011;33252;48.122;11.538;2023-03-01T06:40:24;34.70;;;18.75;;
47519;SDS011;33252;48.122;11.538;2023-03-01T06:42:50;31.35;;;17.73;;
47519;SDS011;33252;48.122;11.538;2023-03-01T06:45:17;35.70;;;19.00;;
47519;SDS011;33252;48.122;11.538;2023-03-01T06:47:44;31.58;;;19.00;;
47519;SDS011;33252;48.122;11.538;2023-03-01T06:50:10;31.38;;;18.58;;
47519;SDS011;33252;48.122;11.538;2023-03-01T06:52:36;28.58;;;16.50;;
47519;SDS011;33252;48.122;11.538;2023-03-01T06:55:02;36.10;;;19.05;;
47519;SDS011;33252;48.122;11.538;2023-03-01T06:57:28;35.67;;;18.52;;
47519;SDS011;33252;48.122;11.538;2023-03-01T06:59:54;33.35;;;17.42;;
47519;SDS011;33252;48.122;11.538;2023-03-01T07:02:20;33.95;;;19.05;;
47519;SDS011;33252;48.122;11.538;2023-03-01T07:04:45;33.72;;;18.08;;
47519;SDS011;33252;48.122;11.538;2023-03-01T07:07:11;33.05;;;17.05;;
47519;SDS011;33252;48.122;11.538;2023-03-01T07:09:37;36.83;;;17.45;;
47519;SDS011;33252;48.122;11.538;2023-03-01T07:12:02;31.25;;;18.35;;
47519;SDS011;33252;48.122;11.538;2023-03-01T07:14:28;35.13;;;19.33;;
47519;SDS011;33252;48.122;11.538;2023-03-01T07:16:54;29.90;;;17.38;;
47519;SDS011;33252;48.122;11.538;2023-03-01T07:19:20;34.47;;;19.85;;
47519;SDS011;33252;48.122;11.538;2023-03-01T07:21:46;30.20;;;17.88;;
47519;SDS011;33252;48.122;11.538;2023-03-01T07:24:12;35.42;;;18.20;;
47519;SDS011;33252;48.122;11.538;2023-03-01T07:26:38;29.00;;;17.42;;
47519;SDS011;33252;48.122;11.538;2023-03-01T07:29:04;34.95;;;19.58;;
47519;SDS011;33252;48.122;11.538;2023-03-01T07:31:31;28.00;;;16.23;;
47519;SDS011;33252;48.122;11.538;2023-03-01T07:33:57;33.83;;;17.88;;
47519;SDS011;33252;48.122;11.538;2023-03-01T07:36:23;31.80;;;18.58;;
47519;SDS011;33252;48.122;11.538;2023-03-01T07:38:49;32.20;;;19.38;;
47519;SDS011;33252;48.122;11.538;2023-03-01T07:41:15;27.83;;;17.05;;
47519;SDS011;33252;48.122;11.538;2023-03-01T07:43:41;35.25;;;18.33;;
47519;SDS011;33252;48.122;11.538;2023-03-01T07:46:07;32.92;;;18.45;;
47519;SDS011;33252;48.122;11.538;2023-03-01T07:48:33;31.13;;;18.50;;
47519;SDS011;33252;48.122;11.538;2023-03-01T07:50:59;38.72;;;20.30;;
47519;SDS011;33252;48.122;11.538;2023-03-01T07:53:25;33.13;;;17.85;;
47519;SDS011;33252;48.122;11.538;2023-03-01T07:56:04;35.40;;;18.90;;
47519;SDS011;33252;48.122;11.538;2023-03-01T07:58:36;32.80;;;17.85;;
47519;SDS011;33252;48.122;11.538;2023-03-01T08:01:03;31.30;;;17.33;;
47519;SDS011;33252;48.122;11.538;2023-03-01T08:03:30;36.35;;;19.98;;
47519;SDS011;33252;48.122;11.538;2023-03-01T08:05:58;29.73;;;17.63;;
47519;SDS011;33252;48.122;11.538;2023-03-01T08:08:25;30.55;;;18.38;;
47519;SDS011;33252;48.122;11.538;2023-03-01T08:10:50;36.78;;;18.63;;
47519;SDS011;33252;48.122;11.538;2023-03-01T08:13:16;30.13;;;17.50;;
47519;SDS011;33252;48.122;11.538;2023-03-01T08:15:47;30.95;;;19.05;;
47519;SDS011;33252;48.122;11.538;2023-03-01T08:18:19;33.40;;;18.00;;
47519;SDS011;33252;48.122;11.538;2023-03-01T08:20:46;35.60;;;18.48;;
47519;SDS011;33252;48.122;11.538;2023-03-01T08:23:11;35.17;;;19.45;;
47519;SDS011;33252;48.122;11.538;2023-03-01T08:25:37;32.78;;;17.98;;
47519;SDS011;33252;48.122;11.538;2023-03-01T08:28:04;31.63;;;17.67;;
47519;SDS011;33252;48.122;11.538;2023-03-01T08:30:30;33.60;;;20.80;;
47519;SDS011;33252;48.122;11.538;2023-03-01T08:32:56;33.67;;;18.98;;
47519;SDS011;33252;48.122;11.538;2023-03-01T08:35:21;31.77;;;18.67;;
47519;SDS011;33252;48.122;11.538;2023-03-01T08:37:47;34.97;;;18.52;;
47519;SDS011;33252;48.122;11.538;2023-03-01T08:40:13;32.25;;;18.55;;
47519;SDS011;33252;48.122;11.538;2023-03-01T08:42:39;33.25;;;18.33;;
47519;SDS011;33252;48.122;11.538;2023-03-01T08:45:08;32.08;;;18.23;;
47519;SDS011;33252;48.122;11.538;2023-03-01T08:47:34;31.30;;;19.17;;
47519;SDS011;33252;48.122;11.538;2023-03-01T08:50:00;36.95;;;19.50;;
47519;SDS011;33252;48.122;11.538;2023-03-01T08:52:26;34.78;;;18.33;;
47519;SDS011;33252;48.122;11.538;2023-03-01T08:54:52;31.88;;;18.70;;
47519;SDS011;33252;48.122;11.538;2023-03-01T08:57:18;33.70;;;18.23;;
47519;SDS011;33252;48.122;11.538;2023-03-01T08:59:44;33.28;;;18.00;;
47519;SDS011;33252;48.122;11.538;2023-03-01T09:02:13;35.30;;;18.30;;
47519;SDS011;33252;48.122;11.538;2023-03-01T09:04:40;30.35;;;17.90;;
47519;SDS011;33252;48.122;11.538;2023-03-01T09:07:06;34.67;;;19.13;;
47519;SDS011;33252;48.122;11.538;2023-03-01T09:09:33;31.77;;;18.60;;
47519;SDS011;33252;48.122;11.538;2023-03-01T09:11:58;30.98;;;17.33;;
47519;SDS011;33252;48.122;11.538;2023-03-01T09:14:24;31.83;;;18.10;;
47519;SDS011;33252;48.122;11.538;2023-03-01T09:16:50;32.05;;;19.73;;
47519;SDS011;33252;48.122;11.538;2023-03-01T09:19:16;31.73;;;17.77;;
47519;SDS011;33252;48.122;11.538;2023-03-01T09:21:41;35.05;;;18.42;;
47519;SDS011;33252;48.122;11.538;2023-03-01T09:24:17;29.65;;;18.83;;
47519;SDS011;33252;48.122;11.538;2023-03-01T09:26:44;33.67;;;18.83;;
47519;SDS011;33252;48.122;11.538;2023-03-01T09:29:12;33.00;;;18.48;;
47519;SDS011;33252;48.122;11.538;2023-03-01T09:31:39;33.95;;;17.92;;
47519;SDS011;33252;48.122;11.538;2023-03-01T09:34:06;29.45;;;18.13;;
47519;SDS011;33252;48.122;11.538;2023-03-01T09:36:31;33.45;;;19.38;;
47519;SDS011;33252;48.122;11.538;2023-03-01T09:38:58;33.00;;;18.88;;
47519;SDS011;33252;48.122;11.538;2023-03-01T09:54:48;29.92;;;17.90;;
47519;SDS011;33252;48.122;11.538;2023-03-01T09:57:18;32.58;;;19.50;;
47519;SDS011;33252;48.122;11.538;2023-03-01T10:08:13;38.85;;;18.73;;
47519;SDS011;33252;48.122;11.538;2023-03-01T10:10:48;33.58;;;18.85;;
47519;SDS011;33252;48.122;11.538;2023-03-01T10:15:45;30.48;;;16.83;;
47519;SDS011;33252;48.122;11.538;2023-03-01T10:18:21;30.70;;;18.23;;
47519;SDS011;33252;48.122;11.538;2023-03-01T10:20:51;33.30;;;17.73;;
47519;SDS011;33252;48.122;11.538;2023-03-01T10:23:23;34.22;;;18.70;;
47519;SDS011;33252;48.122;11.538;2023-03-01T10:31:18;36.28;;;18.42;;
47519;SDS011;33252;48.122;11.538;2023-03-01T10:33:52;29.40;;;16.92;;
47519;SDS011;33252;48.122;11.538;2023-03-01T10:36:20;28.63;;;15.95;;
47519;SDS011;33252;48.122;11.538;2023-03-01T10:38:48;28.80;;;18.40;;
47519;SDS011;33252;48.122;11.538;2023-03-01T10:41:14;33.30;;;17.83;;
47519;SDS011;33252;48.122;11.538;2023-03-01T10:46:29;35.40;;;19.65;;
47519;SDS011;33252;48.122;11.538;2023-03-01T10:49:18;33.17;;;18.88;;
47519;SDS011;33252;48.122;11.538;2023-03-01T10:51:44;31.95;;;18.40;;
47519;SDS011;33252;48.122;11.538;2023-03-01T10:54:27;29.50;;;17.38;;
47519;SDS011;33252;48.122;11.538;2023-03-01T10:56:55;34.80;;;19.20;;
47519;SDS011;33252;48.122;11.538;2023-03-01T11:04:57;30.98;;;19.52;;
47519;SDS011;33252;48.122;11.538;2023-03-01T11:07:42;29.98;;;19.00;;
47519;SDS011;33252;48.122;11.538;2023-03-01T11:10:19;30.50;;;18.30;;
47519;SDS011;33252;48.122;11.538;2023-03-01T11:12:46;32.72;;;18.38;;
47519;SDS011;33252;48.122;11.538;2023-03-01T11:15:25;31.30;;;17.98;;
47519;SDS011;33252;48.122;11.538;2023-03-01T11:17:53;33.90;;;20.27;;
47519;SDS011;33252;48.122;11.538;2023-03-01T11:20:24;31.42;;;18.30;;
47519;SDS011;33252;48.122;11.538;2023-03-01T11:22:54;34.05;;;18.50;;
47519;SDS011;33252;48.122;11.538;2023-03-01T11:25:27;33.55;;;19.65;;
47519;SDS011;33252;48.122;11.538;2023-03-01T11:27:57;33.67;;;17.10;;
47519;SDS011;33252;48.122;11.538;2023-03-01T11:30:27;34.45;;;19.27;;
47519;SDS011;33252;48.122;11.538;2023-03-01T11:36:03;35.97;;;20.33;;
47519;SDS011;33252;48.122;11.538;2023-03-01T11:38:32;34.35;;;19.58;;
47519;SDS011;33252;48.122;11.538;2023-03-01T11:41:16;38.60;;;20.48;;
47519;SDS011;33252;48.122;11.538;2023-03-01T11:44:00;32.60;;;20.50;;
47519;SDS011;33252;48.122;11.538;2023-03-01T11:51:53;31.88;;;19.92;;
47519;SDS011;33252;48.122;11.538;2023-03-01T12:00:12;31.67;;;21.00;;
47519;SDS011;33252;48.122;11.538;2023-03-01T12:02:48;35.13;;;20.23;;
47519;SDS011;33252;48.122;11.538;2023-03-01T12:08:34;32.83;;;18.65;;
47519;SDS011;33252;48.122;11.538;2023-03-01T12:25:48;28.95;;;19.83;;
47519;SDS011;33252;48.122;11.538;2023-03-01T12:50:46;32.63;;;19.45;;
47519;SDS011;33252;48.122;11.538;2023-03-01T12:53:20;31.27;;;19.02;;
47519;SDS011;33252;48.122;11.538;2023-03-01T12:55:49;29.10;;;18.65;;
47519;SDS011;33252;48.122;11.538;2023-03-01T13:12:41;30.70;;;19.52;;
47519;SDS011;33252;48.122;11.538;2023-03-01T13:17:47;28.55;;;18.75;;
47519;SDS011;33252;48.122;11.538;2023-03-01T13:20:19;28.40;;;19.08;;
47519;SDS011;33252;48.122;11.538;2023-03-01T13:26:19;31.58;;;19.88;;
47519;SDS011;33252;48.122;11.538;2023-03-01T13:28:46;26.70;;;18.52;;
47519;SDS011;33252;48.122;11.538;2023-03-01T13:33:42;28.77;;;18.60;;
47519;SDS011;33252;48.122;11.538;2023-03-01T13:42:25;27.65;;;20.60;;
47519;SDS011;33252;48.122;11.538;2023-03-01T13:44:20;24.83;;;19.65;;
47519;SDS011;33252;48.122;11.538;2023-03-01T13:46:47;27.25;;;19.73;;
47519;SDS011;33252;48.122;11.538;2023-03-01T13:49:17;30.55;;;21.38;;
47519;SDS011;33252;48.122;11.538;2023-03-01T13:51:49;24.07;;;18.73;;
47519;SDS011;33252;48.122;11.538;2023-03-01T13:54:16;28.58;;;21.50;;
47519;SDS011;33252;48.122;11.538;2023-03-01T13:56:51;27.30;;;19.67;;
47519;SDS011;33252;48.122;11.538;2023-03-01T13:59:19;24.35;;;19.60;;
47519;SDS011;33252;48.122;11.538;2023-03-01T14:01:59;24.35;;;19.50;;
47519;SDS011;33252;48.122;11.538;2023-03-01T14:06:52;25.75;;;19.48;;
47519;SDS011;33252;48.122;11.538;2023-03-01T14:09:41;27.70;;;21.05;;
47519;SDS011;33252;48.122;11.538;2023-03-01T14:20:09;27.27;;;20.83;;
47519;SDS011;33252;48.122;11.538;2023-03-01T14:22:58;30.10;;;21.63;;
47519;SDS011;33252;48.122;11.538;2023-03-01T14:30:31;26.88;;;20.10;;
47519;SDS011;33252;48.122;11.538;2023-03-01T14:33:01;22.80;;;19.65;;
47519;SDS011;33252;48.122;11.538;2023-03-01T14:35:35;27.70;;;20.30;;
47519;SDS011;33252;48.122;11.538;2023-03-01T14:38:02;27.52;;;19.77;;
47519;SDS011;33252;48.122;11.538;2023-03-01T14:42:56;28.77;;;20.63;;
47519;SDS011;33252;48.122;11.538;2023-03-01T14:45:24;25.70;;;17.23;;
47519;SDS011;33252;48.122;11.538;2023-03-01T14:47:53;28.35;;;19.15;;
47519;SDS011;33252;48.122;11.538;2023-03-01T14:50:30;27.05;;;19.80;;
47519;SDS011;33252;48.122;11.538;2023-03-01T14:52:59;29.70;;;19.05;;
47519;SDS011;33252;48.122;11.538;2023-03-01T14:55:31;26.48;;;17.95;;
47519;SDS011;33252;48.122;11.538;2023-03-01T14:58:22;28.42;;;18.20;;
47519;SDS011;33252;48.122;11.538;2023-03-01T15:00:53;27.92;;;18.73;;
47519;SDS011;33252;48.122;11.538;2023-03-01T15:03:26;30.45;;;19.08;;
47519;SDS011;33252;48.122;11.538;2023-03-01T15:05:58;25.95;;;19.55;;
47519;SDS011;33252;48.122;11.538;2023-03-01T15:08:26;29.27;;;19.92;;
47519;SDS011;33252;48.122;11.538;2023-03-01T15:11:03;26.73;;;18.52;;
47519;SDS011;33252;48.122;11.538;2023-03-01T15:13:41;29.23;;;18.10;;
47519;SDS011;33252;48.122;11.538;2023-03-01T15:16:08;25.30;;;17.08;;
47519;SDS011;33252;48.122;11.538;2023-03-01T15:18:36;25.35;;;17.25;;
47519;SDS011;33252;48.122;11.538;2023-03-01T15:21:09;25.13;;;16.88;;
47519;SDS011;33252;48.122;11.538;2023-03-01T15:23:47;29.30;;;16.88;;
47519;SDS011;33252;48.122;11.538;2023-03-01T15:26:42;25.52;;;17.23;;
47519;SDS011;33252;48.122;11.538;2023-03-01T15:29:11;25.98;;;17.73;;
47519;SDS011;33252;48.122;11.538;2023-03-01T15:31:53;24.92;;;16.80;;
47519;SDS011;33252;48.122;11.538;2023-03-01T15:37:03;30.30;;;16.85;;
47519;SDS011;33252;48.122;11.538;2023-03-01T15:42:05;28.17;;;16.80;;
47519;SDS011;33252;48.122;11.538;2023-03-01T15:44:36;30.60;;;17.20;;
47519;SDS011;33252;48.122;11.538;2023-03-01T15:47:07;27.50;;;16.42;;
47519;SDS011;33252;48.122;11.538;2023-03-01T15:52:21;25.63;;;16.63;;
47519;SDS011;33252;48.122;11.538;2023-03-01T15:54:54;30.23;;;16.15;;
47519;SDS011;33252;48.122;11.538;2023-03-01T15:57:22;27.42;;;17.15;;
47519;SDS011;33252;48.122;11.538;2023-03-01T15:59:47;29.95;;;17.88;;
47519;SDS011;33252;48.122;11.538;2023-03-01T16:02:14;28.52;;;16.63;;
47519;SDS011;33252;48.122;11.538;2023-03-01T16:04:40;25.30;;;15.85;;
47519;SDS011;33252;48.122;11.538;2023-03-01T16:07:05;27.75;;;16.23;;
47519;SDS011;33252;48.122;11.538;2023-03-01T16:09:31;27.38;;;17.27;;
47519;SDS011;33252;48.122;11.538;2023-03-01T16:11:59;24.77;;;15.60;;
47519;SDS011;33252;48.122;11.538;2023-03-01T16:14:26;25.40;;;16.20;;
47519;SDS011;33252;48.122;11.538;2023-03-01T16:16:52;28.77;;;16.52;;
47519;SDS011;33252;48.122;11.538;2023-03-01T16:19:18;28.73;;;17.38;;
47519;SDS011;33252;48.122;11.538;2023-03-01T16:21:43;26.92;;;16.13;;
47519;SDS011;33252;48.122;11.538;2023-03-01T16:24:11;30.17;;;16.17;;
47519;SDS011;33252;48.122;11.538;2023-03-01T16:26:37;24.67;;;15.18;;
47519;SDS011;33252;48.122;11.538;2023-03-01T16:29:03;26.33;;;15.25;;
47519;SDS011;33252;48.122;11.538;2023-03-01T16:31:29;28.70;;;16.42;;
47519;SDS011;33252;48.122;11.538;2023-03-01T16:33:56;25.60;;;15.88;;
47519;SDS011;33252;48.122;11.538;2023-03-01T16:36:23;24.63;;;14.63;;
47519;SDS011;33252;48.122;11.538;2023-03-01T16:38:51;25.98;;;15.40;;
47519;SDS011;33252;48.122;11.538;2023-03-01T16:41:19;23.67;;;14.32;;
47519;SDS011;33252;48.122;11.538;2023-03-01T16:43:46;25.35;;;14.02;;
47519;SDS011;33252;48.122;11.538;2023-03-01T16:46:13;30.80;;;16.38;;
47519;SDS011;33252;48.122;11.538;2023-03-01T16:48:44;23.60;;;14.65;;
47519;SDS011;33252;48.122;11.538;2023-03-01T16:51:11;28.73;;;16.38;;
47519;SDS011;33252;48.122;11.538;2023-03-01T16:53:37;28.05;;;15.30;;
47519;SDS011;33252;48.122;11.538;2023-03-01T16:56:05;25.90;;;14.27;;
47519;SDS011;33252;48.122;11.538;2023-03-01T16:58:33;28.80;;;16.40;;